Carrolls, WA

9:40 PM PDT on October 24, 2014 (GMT -0700)
Pearson | Change Station
CLOSE
Current Station
Airport
Location: Vancouver,
Elevation: 26 ft
Nearby Weather Stations

Elev 26 ft 45.62 °N, 122.65 °W | Updated 47 minutes ago

Overcast
Overcast
52 °F
Feels Like 52 °F
N
0
Wind Variable Wind from North

Today
High -- | Low -- °F
--% Chance of Precip.
Yesterday
High -- | Low -- °F
Precip. -- in
7:40 AM 6:09 PM
New Moon, 2% visible
Pressure 29.76 in
Visibility 10.0 miles
Clouds Few 6000 ft
Few 8500 ft
Dew Point 50 °F
Humidity 93%
Rainfall 0.13 in
Snow Depth Not available.
UV 0 out of 12
Pollen .40 out of 12
Air Quality Not available.
Flu Activity Sporadic
METAR KVUO 250353Z AUTO 00000KT 10SM FEW060 FEW085 11/10 A2976 RMK AO2 SLP078 T01110100

More Conditions Fewer Conditions

Pressure 29.76 in
Visibility 10.0 miles
Clouds Few 6000 ft
Few 8500 ft
Dew Point 50 °F
Humidity 93%
Rainfall 0.13 in
Snow Depth Not available.
UV 0 out of 12
Pollen .40 out of 12
Air Quality Not available.
Flu Activity Sporadic
METAR KVUO 250353Z AUTO 00000KT 10SM FEW060 FEW085 11/10 A2976 RMK AO2 SLP078 T01110100

More Conditions Fewer Conditions

10-Day Weather Forecast

Almanac

Astronomy

Oct. 24, 2014 Rise Set
Actual Time 7:40 AM PDT 6:09 PM PDT
Civil Twilight 7:10 AM PDT 6:40 PM PDT
Nautical Twilight 6:35 AM PDT 7:15 PM PDT
Astronomical Twilight 6:00 AM PDT 7:49 PM PDT
Moon 8:27 AM PDT (10/24) 6:50 PM PDT (10/24)
Length of Visible Light 11h 29m
Length of Day
10h 28m
Tomorrow will be 3m 2s shorter.
New Moon, 2% of the Moon is Illuminated
Oct 25
New Moon
Oct 30
First Quarter
Nov 6
Full
Nov 14
Last Quarter
Nov 22
New

Yesterday's Extremes

State Highs State Lows

Community

WunderPhotos

Upload Photos

1,764,784 photos uploaded!

Nearby

Snow Depth

Station Depth Elevation
Swift Creek 0 in 3770 ft
June Lake 0 in 3340 ft
Spirit Lake 0 in 3120 ft
Spencer Meadow 0 in 3400 ft
Surprise Lakes 1 in 4250 ft

Earthquake Activity

City Distance Mag. Time & Date
No recent earthquake activity has been reported nearby.
Minimum magnitude displayed is 2.5.

Coastal Water Temperatures

Place Temperature
Astoria, OR 60.1 °F
Westport, WA 57.9 °F

Nearby Weather Stations